sensor_id;sensor_type;location;lat;lon;timestamp;P1;durP1;ratioP1;P2;durP2;ratioP2
65710;SDS011;52690;54.496;9.030;2023-01-25T00:00:17;32.25;;;19.00;;
65710;SDS011;52690;54.496;9.030;2023-01-25T00:01:17;29.33;;;19.00;;
65710;SDS011;52690;54.496;9.030;2023-01-25T00:02:17;27.42;;;17.55;;
65710;SDS011;52690;54.496;9.030;2023-01-25T00:03:17;31.67;;;20.25;;
65710;SDS011;52690;54.496;9.030;2023-01-25T00:04:18;30.38;;;19.42;;
65710;SDS011;52690;54.496;9.030;2023-01-25T00:05:18;29.75;;;19.13;;
65710;SDS011;52690;54.496;9.030;2023-01-25T00:06:19;29.33;;;19.20;;
65710;SDS011;52690;54.496;9.030;2023-01-25T00:07:19;29.75;;;18.50;;
65710;SDS011;52690;54.496;9.030;2023-01-25T00:08:19;29.08;;;18.50;;
65710;SDS011;52690;54.496;9.030;2023-01-25T00:09:20;26.40;;;18.63;;
65710;SDS011;52690;54.496;9.030;2023-01-25T00:10:21;29.17;;;18.88;;
65710;SDS011;52690;54.496;9.030;2023-01-25T00:11:21;28.17;;;19.13;;
65710;SDS011;52690;54.496;9.030;2023-01-25T00:12:21;28.98;;;19.55;;
65710;SDS011;52690;54.496;9.030;2023-01-25T00:13:21;29.42;;;19.38;;
65710;SDS011;52690;54.496;9.030;2023-01-25T00:14:22;31.77;;;19.98;;
65710;SDS011;52690;54.496;9.030;2023-01-25T00:15:22;33.65;;;19.83;;
65710;SDS011;52690;54.496;9.030;2023-01-25T00:16:23;34.30;;;20.63;;
65710;SDS011;52690;54.496;9.030;2023-01-25T00:17:23;31.20;;;19.77;;
65710;SDS011;52690;54.496;9.030;2023-01-25T00:18:23;28.02;;;19.92;;
65710;SDS011;52690;54.496;9.030;2023-01-25T00:19:23;28.53;;;19.50;;
65710;SDS011;52690;54.496;9.030;2023-01-25T00:20:24;28.27;;;18.70;;
65710;SDS011;52690;54.496;9.030;2023-01-25T00:21:24;30.90;;;19.50;;
65710;SDS011;52690;54.496;9.030;2023-01-25T00:22:25;29.30;;;18.70;;
65710;SDS011;52690;54.496;9.030;2023-01-25T00:23:25;31.77;;;19.30;;
65710;SDS011;52690;54.496;9.030;2023-01-25T00:24:25;29.67;;;18.00;;
65710;SDS011;52690;54.496;9.030;2023-01-25T00:25:25;30.42;;;19.90;;
65710;SDS011;52690;54.496;9.030;2023-01-25T00:26:25;34.22;;;20.95;;
65710;SDS011;52690;54.496;9.030;2023-01-25T00:27:25;31.45;;;21.88;;
65710;SDS011;52690;54.496;9.030;2023-01-25T00:28:25;35.70;;;22.25;;
65710;SDS011;52690;54.496;9.030;2023-01-25T00:29:26;32.00;;;20.80;;
65710;SDS011;52690;54.496;9.030;2023-01-25T00:30:26;35.53;;;22.08;;
65710;SDS011;52690;54.496;9.030;2023-01-25T00:32:39;35.53;;;21.83;;
65710;SDS011;52690;54.496;9.030;2023-01-25T00:33:48;31.30;;;20.70;;
65710;SDS011;52690;54.496;9.030;2023-01-25T00:34:49;32.63;;;19.73;;
65710;SDS011;52690;54.496;9.030;2023-01-25T00:35:49;33.42;;;21.25;;
65710;SDS011;52690;54.496;9.030;2023-01-25T00:37:12;32.17;;;21.77;;
65710;SDS011;52690;54.496;9.030;2023-01-25T00:39:43;29.55;;;19.23;;
65710;SDS011;52690;54.496;9.030;2023-01-25T00:40:43;31.95;;;21.10;;
65710;SDS011;52690;54.496;9.030;2023-01-25T00:41:43;34.00;;;20.52;;
65710;SDS011;52690;54.496;9.030;2023-01-25T00:42:43;30.02;;;19.92;;
65710;SDS011;52690;54.496;9.030;2023-01-25T00:43:43;31.33;;;21.33;;
65710;SDS011;52690;54.496;9.030;2023-01-25T00:44:43;34.38;;;22.13;;
65710;SDS011;52690;54.496;9.030;2023-01-25T00:45:44;31.42;;;21.58;;
65710;SDS011;52690;54.496;9.030;2023-01-25T00:46:44;33.27;;;21.23;;
65710;SDS011;52690;54.496;9.030;2023-01-25T00:47:44;35.97;;;22.50;;
65710;SDS011;52690;54.496;9.030;2023-01-25T00:48:45;32.50;;;21.23;;
65710;SDS011;52690;54.496;9.030;2023-01-25T00:49:45;33.55;;;21.13;;
65710;SDS011;52690;54.496;9.030;2023-01-25T00:50:45;29.95;;;19.55;;
65710;SDS011;52690;54.496;9.030;2023-01-25T00:51:45;33.03;;;20.63;;
65710;SDS011;52690;54.496;9.030;2023-01-25T00:52:45;28.85;;;20.25;;
65710;SDS011;52690;54.496;9.030;2023-01-25T00:53:46;33.38;;;20.75;;
65710;SDS011;52690;54.496;9.030;2023-01-25T00:54:46;33.83;;;20.63;;
65710;SDS011;52690;54.496;9.030;2023-01-25T00:55:52;31.38;;;20.90;;
65710;SDS011;52690;54.496;9.030;2023-01-25T00:56:52;31.45;;;21.70;;
65710;SDS011;52690;54.496;9.030;2023-01-25T00:57:55;31.83;;;20.92;;
65710;SDS011;52690;54.496;9.030;2023-01-25T00:58:55;30.20;;;20.23;;
65710;SDS011;52690;54.496;9.030;2023-01-25T00:59:55;28.15;;;20.35;;
65710;SDS011;52690;54.496;9.030;2023-01-25T01:00:55;30.30;;;20.85;;
65710;SDS011;52690;54.496;9.030;2023-01-25T01:01:56;33.63;;;21.88;;
65710;SDS011;52690;54.496;9.030;2023-01-25T01:02:56;31.17;;;20.63;;
65710;SDS011;52690;54.496;9.030;2023-01-25T01:03:56;28.20;;;17.92;;
65710;SDS011;52690;54.496;9.030;2023-01-25T01:04:56;26.80;;;18.90;;
65710;SDS011;52690;54.496;9.030;2023-01-25T01:06:04;31.48;;;18.88;;
65710;SDS011;52690;54.496;9.030;2023-01-25T01:07:04;30.58;;;19.52;;
65710;SDS011;52690;54.496;9.030;2023-01-25T01:08:04;25.17;;;18.23;;
65710;SDS011;52690;54.496;9.030;2023-01-25T01:09:06;28.63;;;19.20;;
65710;SDS011;52690;54.496;9.030;2023-01-25T01:10:06;26.17;;;18.40;;
65710;SDS011;52690;54.496;9.030;2023-01-25T01:11:08;28.58;;;18.92;;
65710;SDS011;52690;54.496;9.030;2023-01-25T01:12:08;30.00;;;18.60;;
65710;SDS011;52690;54.496;9.030;2023-01-25T01:13:08;29.13;;;17.85;;
65710;SDS011;52690;54.496;9.030;2023-01-25T01:14:08;25.45;;;16.88;;
65710;SDS011;52690;54.496;9.030;2023-01-25T01:15:09;27.25;;;17.23;;
65710;SDS011;52690;54.496;9.030;2023-01-25T01:16:10;26.90;;;17.60;;
65710;SDS011;52690;54.496;9.030;2023-01-25T01:17:10;29.75;;;18.48;;
65710;SDS011;52690;54.496;9.030;2023-01-25T01:18:11;32.58;;;18.23;;
65710;SDS011;52690;54.496;9.030;2023-01-25T01:19:11;30.60;;;18.35;;
65710;SDS011;52690;54.496;9.030;2023-01-25T01:20:11;27.90;;;17.35;;
65710;SDS011;52690;54.496;9.030;2023-01-25T01:21:12;29.52;;;18.55;;
65710;SDS011;52690;54.496;9.030;2023-01-25T01:22:12;27.67;;;18.15;;
65710;SDS011;52690;54.496;9.030;2023-01-25T01:23:12;31.30;;;18.63;;
65710;SDS011;52690;54.496;9.030;2023-01-25T01:24:12;29.80;;;17.48;;
65710;SDS011;52690;54.496;9.030;2023-01-25T01:25:12;27.75;;;17.20;;
65710;SDS011;52690;54.496;9.030;2023-01-25T01:26:13;27.55;;;17.92;;
65710;SDS011;52690;54.496;9.030;2023-01-25T01:27:14;26.40;;;17.05;;
65710;SDS011;52690;54.496;9.030;2023-01-25T01:28:14;29.25;;;18.48;;
65710;SDS011;52690;54.496;9.030;2023-01-25T01:29:14;29.37;;;18.30;;
65710;SDS011;52690;54.496;9.030;2023-01-25T01:30:14;27.63;;;17.98;;
65710;SDS011;52690;54.496;9.030;2023-01-25T01:31:16;29.73;;;18.73;;
65710;SDS011;52690;54.496;9.030;2023-01-25T01:32:16;30.52;;;18.58;;
65710;SDS011;52690;54.496;9.030;2023-01-25T01:33:16;32.70;;;18.95;;
65710;SDS011;52690;54.496;9.030;2023-01-25T01:34:17;28.42;;;18.23;;
65710;SDS011;52690;54.496;9.030;2023-01-25T01:35:17;29.42;;;18.20;;
65710;SDS011;52690;54.496;9.030;2023-01-25T01:36:18;32.35;;;18.95;;
65710;SDS011;52690;54.496;9.030;2023-01-25T01:37:19;28.17;;;18.02;;
65710;SDS011;52690;54.496;9.030;2023-01-25T01:38:19;30.52;;;18.40;;
65710;SDS011;52690;54.496;9.030;2023-01-25T01:39:19;32.10;;;18.63;;
65710;SDS011;52690;54.496;9.030;2023-01-25T01:40:19;30.70;;;18.85;;
65710;SDS011;52690;54.496;9.030;2023-01-25T01:41:20;32.92;;;19.83;;
65710;SDS011;52690;54.496;9.030;2023-01-25T01:42:20;27.33;;;17.75;;
65710;SDS011;52690;54.496;9.030;2023-01-25T01:43:21;30.63;;;18.33;;
65710;SDS011;52690;54.496;9.030;2023-01-25T01:44:39;31.75;;;19.13;;
65710;SDS011;52690;54.496;9.030;2023-01-25T01:46:56;27.52;;;17.85;;
65710;SDS011;52690;54.496;9.030;2023-01-25T01:47:57;29.98;;;18.27;;
65710;SDS011;52690;54.496;9.030;2023-01-25T01:48:59;26.08;;;16.95;;
65710;SDS011;52690;54.496;9.030;2023-01-25T01:50:01;26.83;;;18.00;;
65710;SDS011;52690;54.496;9.030;2023-01-25T01:52:04;28.45;;;17.83;;
65710;SDS011;52690;54.496;9.030;2023-01-25T01:53:05;28.55;;;17.55;;
65710;SDS011;52690;54.496;9.030;2023-01-25T01:54:11;25.05;;;16.95;;
65710;SDS011;52690;54.496;9.030;2023-01-25T01:55:14;26.63;;;17.23;;
65710;SDS011;52690;54.496;9.030;2023-01-25T01:56:20;27.38;;;17.35;;
65710;SDS011;52690;54.496;9.030;2023-01-25T01:57:35;25.52;;;16.75;;
65710;SDS011;52690;54.496;9.030;2023-01-25T01:58:36;24.58;;;16.05;;
65710;SDS011;52690;54.496;9.030;2023-01-25T01:59:44;29.88;;;17.58;;
65710;SDS011;52690;54.496;9.030;2023-01-25T02:00:46;24.38;;;16.33;;
65710;SDS011;52690;54.496;9.030;2023-01-25T02:01:46;28.13;;;17.50;;
65710;SDS011;52690;54.496;9.030;2023-01-25T02:02:47;25.30;;;15.80;;
65710;SDS011;52690;54.496;9.030;2023-01-25T02:03:47;24.90;;;16.40;;
65710;SDS011;52690;54.496;9.030;2023-01-25T02:04:49;25.77;;;16.15;;
65710;SDS011;52690;54.496;9.030;2023-01-25T02:05:50;28.73;;;17.65;;
65710;SDS011;52690;54.496;9.030;2023-01-25T02:07:01;26.88;;;16.90;;
65710;SDS011;52690;54.496;9.030;2023-01-25T02:08:02;25.77;;;17.15;;
65710;SDS011;52690;54.496;9.030;2023-01-25T02:09:04;28.33;;;18.10;;
65710;SDS011;52690;54.496;9.030;2023-01-25T02:10:05;25.33;;;17.40;;
65710;SDS011;52690;54.496;9.030;2023-01-25T02:11:06;25.70;;;17.60;;
65710;SDS011;52690;54.496;9.030;2023-01-25T02:12:06;29.88;;;18.23;;
65710;SDS011;52690;54.496;9.030;2023-01-25T02:13:08;25.70;;;16.70;;
65710;SDS011;52690;54.496;9.030;2023-01-25T02:14:08;26.92;;;17.73;;
65710;SDS011;52690;54.496;9.030;2023-01-25T02:15:09;32.58;;;18.23;;
65710;SDS011;52690;54.496;9.030;2023-01-25T02:16:13;31.52;;;18.05;;
65710;SDS011;52690;54.496;9.030;2023-01-25T02:17:14;27.33;;;16.95;;
65710;SDS011;52690;54.496;9.030;2023-01-25T02:18:15;28.25;;;17.45;;
65710;SDS011;52690;54.496;9.030;2023-01-25T02:19:22;29.50;;;18.63;;
65710;SDS011;52690;54.496;9.030;2023-01-25T02:21:25;32.80;;;18.93;;
65710;SDS011;52690;54.496;9.030;2023-01-25T02:22:27;27.33;;;16.90;;
65710;SDS011;52690;54.496;9.030;2023-01-25T02:23:32;31.38;;;18.20;;
65710;SDS011;52690;54.496;9.030;2023-01-25T02:24:33;26.98;;;17.38;;
65710;SDS011;52690;54.496;9.030;2023-01-25T02:25:34;30.85;;;18.25;;
65710;SDS011;52690;54.496;9.030;2023-01-25T02:26:34;28.92;;;17.65;;
65710;SDS011;52690;54.496;9.030;2023-01-25T02:27:35;25.65;;;18.13;;
65710;SDS011;52690;54.496;9.030;2023-01-25T02:28:46;29.83;;;18.10;;
65710;SDS011;52690;54.496;9.030;2023-01-25T02:29:47;28.15;;;17.70;;
65710;SDS011;52690;54.496;9.030;2023-01-25T02:30:48;25.98;;;17.05;;
65710;SDS011;52690;54.496;9.030;2023-01-25T02:31:48;27.98;;;17.83;;
65710;SDS011;52690;54.496;9.030;2023-01-25T02:32:51;26.35;;;16.75;;
65710;SDS011;52690;54.496;9.030;2023-01-25T02:33:51;27.58;;;17.70;;
65710;SDS011;52690;54.496;9.030;2023-01-25T02:34:51;25.80;;;16.88;;
65710;SDS011;52690;54.496;9.030;2023-01-25T02:35:59;27.63;;;17.30;;
65710;SDS011;52690;54.496;9.030;2023-01-25T02:37:12;26.23;;;16.60;;
65710;SDS011;52690;54.496;9.030;2023-01-25T02:38:14;30.63;;;17.30;;
65710;SDS011;52690;54.496;9.030;2023-01-25T02:39:15;30.48;;;18.88;;
65710;SDS011;52690;54.496;9.030;2023-01-25T02:40:17;30.65;;;19.08;;
65710;SDS011;52690;54.496;9.030;2023-01-25T02:41:20;32.75;;;19.60;;
65710;SDS011;52690;54.496;9.030;2023-01-25T02:42:22;28.35;;;17.08;;
65710;SDS011;52690;54.496;9.030;2023-01-25T02:43:22;28.10;;;17.92;;
65710;SDS011;52690;54.496;9.030;2023-01-25T02:44:27;27.40;;;17.60;;
65710;SDS011;52690;54.496;9.030;2023-01-25T02:45:28;23.92;;;16.30;;
65710;SDS011;52690;54.496;9.030;2023-01-25T02:46:30;29.38;;;18.48;;
65710;SDS011;52690;54.496;9.030;2023-01-25T02:47:31;28.08;;;17.25;;
65710;SDS011;52690;54.496;9.030;2023-01-25T02:48:31;29.25;;;17.75;;
65710;SDS011;52690;54.496;9.030;2023-01-25T02:49:33;30.63;;;18.52;;
65710;SDS011;52690;54.496;9.030;2023-01-25T02:50:33;27.17;;;18.08;;
65710;SDS011;52690;54.496;9.030;2023-01-25T02:51:34;26.85;;;17.48;;
65710;SDS011;52690;54.496;9.030;2023-01-25T02:52:34;27.33;;;17.95;;
65710;SDS011;52690;54.496;9.030;2023-01-25T02:53:35;28.48;;;18.27;;
65710;SDS011;52690;54.496;9.030;2023-01-25T02:54:35;30.20;;;18.38;;
65710;SDS011;52690;54.496;9.030;2023-01-25T02:55:35;31.48;;;19.35;;
65710;SDS011;52690;54.496;9.030;2023-01-25T02:56:36;30.45;;;18.70;;
65710;SDS011;52690;54.496;9.030;2023-01-25T02:57:36;31.27;;;18.83;;
65710;SDS011;52690;54.496;9.030;2023-01-25T02:58:36;33.75;;;20.80;;
65710;SDS011;52690;54.496;9.030;2023-01-25T02:59:36;30.45;;;19.92;;
65710;SDS011;52690;54.496;9.030;2023-01-25T03:00:36;31.23;;;19.95;;
65710;SDS011;52690;54.496;9.030;2023-01-25T03:01:37;29.13;;;18.70;;
65710;SDS011;52690;54.496;9.030;2023-01-25T03:02:37;31.23;;;18.60;;
65710;SDS011;52690;54.496;9.030;2023-01-25T03:03:38;32.13;;;19.17;;
65710;SDS011;52690;54.496;9.030;2023-01-25T03:04:38;31.48;;;19.95;;
65710;SDS011;52690;54.496;9.030;2023-01-25T03:05:38;32.17;;;20.42;;
65710;SDS011;52690;54.496;9.030;2023-01-25T03:06:38;31.77;;;20.10;;
65710;SDS011;52690;54.496;9.030;2023-01-25T03:07:39;29.67;;;19.95;;
65710;SDS011;52690;54.496;9.030;2023-01-25T03:08:39;26.42;;;17.38;;
65710;SDS011;52690;54.496;9.030;2023-01-25T03:09:39;31.52;;;19.48;;
65710;SDS011;52690;54.496;9.030;2023-01-25T03:10:39;28.00;;;17.48;;
65710;SDS011;52690;54.496;9.030;2023-01-25T03:11:39;23.10;;;15.70;;
65710;SDS011;52690;54.496;9.030;2023-01-25T03:12:40;23.52;;;16.00;;
65710;SDS011;52690;54.496;9.030;2023-01-25T03:13:41;25.35;;;16.92;;
65710;SDS011;52690;54.496;9.030;2023-01-25T03:14:41;29.13;;;17.90;;
65710;SDS011;52690;54.496;9.030;2023-01-25T03:15:43;26.23;;;16.95;;
65710;SDS011;52690;54.496;9.030;2023-01-25T03:16:43;26.13;;;16.83;;
65710;SDS011;52690;54.496;9.030;2023-01-25T03:17:43;27.33;;;16.60;;
65710;SDS011;52690;54.496;9.030;2023-01-25T03:18:43;26.97;;;15.90;;
65710;SDS011;52690;54.496;9.030;2023-01-25T03:19:44;24.95;;;16.83;;
65710;SDS011;52690;54.496;9.030;2023-01-25T03:20:44;25.17;;;16.27;;
65710;SDS011;52690;54.496;9.030;2023-01-25T03:21:44;29.15;;;17.63;;
65710;SDS011;52690;54.496;9.030;2023-01-25T03:22:45;25.48;;;16.30;;
65710;SDS011;52690;54.496;9.030;2023-01-25T03:23:46;26.58;;;16.75;;
65710;SDS011;52690;54.496;9.030;2023-01-25T03:24:46;29.25;;;17.42;;
65710;SDS011;52690;54.496;9.030;2023-01-25T03:25:46;26.70;;;17.30;;
65710;SDS011;52690;54.496;9.030;2023-01-25T03:26:47;27.05;;;18.10;;
65710;SDS011;52690;54.496;9.030;2023-01-25T03:28:05;26.30;;;17.55;;
65710;SDS011;52690;54.496;9.030;2023-01-25T03:29:05;30.15;;;17.90;;
65710;SDS011;52690;54.496;9.030;2023-01-25T03:30:06;26.77;;;17.35;;
65710;SDS011;52690;54.496;9.030;2023-01-25T03:31:07;30.33;;;17.67;;
65710;SDS011;52690;54.496;9.030;2023-01-25T03:32:07;28.95;;;17.63;;
65710;SDS011;52690;54.496;9.030;2023-01-25T03:33:07;28.85;;;17.52;;
65710;SDS011;52690;54.496;9.030;2023-01-25T03:34:08;29.15;;;18.05;;
65710;SDS011;52690;54.496;9.030;2023-01-25T03:35:08;30.38;;;19.25;;
65710;SDS011;52690;54.496;9.030;2023-01-25T03:36:08;34.35;;;19.15;;
65710;SDS011;52690;54.496;9.030;2023-01-25T03:37:09;30.83;;;18.27;;
65710;SDS011;52690;54.496;9.030;2023-01-25T03:38:09;27.65;;;18.17;;
65710;SDS011;52690;54.496;9.030;2023-01-25T03:39:09;31.10;;;19.07;;
65710;SDS011;52690;54.496;9.030;2023-01-25T03:40:09;32.80;;;20.52;;
65710;SDS011;52690;54.496;9.030;2023-01-25T03:41:10;31.92;;;19.30;;
65710;SDS011;52690;54.496;9.030;2023-01-25T03:42:12;33.63;;;20.80;;
65710;SDS011;52690;54.496;9.030;2023-01-25T03:43:12;29.80;;;19.13;;
65710;SDS011;52690;54.496;9.030;2023-01-25T03:44:12;34.35;;;19.20;;
65710;SDS011;52690;54.496;9.030;2023-01-25T03:45:13;30.35;;;18.33;;
65710;SDS011;52690;54.496;9.030;2023-01-25T03:46:13;33.50;;;19.23;;
65710;SDS011;52690;54.496;9.030;2023-01-25T03:47:13;34.28;;;20.40;;
65710;SDS011;52690;54.496;9.030;2023-01-25T03:48:13;30.05;;;19.95;;
65710;SDS011;52690;54.496;9.030;2023-01-25T03:49:13;28.00;;;18.38;;
65710;SDS011;52690;54.496;9.030;2023-01-25T03:50:14;34.45;;;19.80;;
65710;SDS011;52690;54.496;9.030;2023-01-25T03:51:14;32.17;;;20.55;;
65710;SDS011;52690;54.496;9.030;2023-01-25T03:52:14;32.45;;;19.30;;
65710;SDS011;52690;54.496;9.030;2023-01-25T03:53:14;30.38;;;19.05;;
65710;SDS011;52690;54.496;9.030;2023-01-25T03:54:19;36.92;;;21.00;;
65710;SDS011;52690;54.496;9.030;2023-01-25T03:55:19;29.55;;;18.10;;
65710;SDS011;52690;54.496;9.030;2023-01-25T03:56:19;30.13;;;18.15;;
65710;SDS011;52690;54.496;9.030;2023-01-25T03:57:19;26.33;;;18.58;;
65710;SDS011;52690;54.496;9.030;2023-01-25T03:58:19;33.58;;;19.70;;
65710;SDS011;52690;54.496;9.030;2023-01-25T03:59:20;30.05;;;19.63;;
65710;SDS011;52690;54.496;9.030;2023-01-25T04:00:20;30.67;;;19.38;;
65710;SDS011;52690;54.496;9.030;2023-01-25T04:01:20;30.55;;;19.80;;
65710;SDS011;52690;54.496;9.030;2023-01-25T04:02:20;30.30;;;19.15;;
65710;SDS011;52690;54.496;9.030;2023-01-25T04:03:20;32.30;;;19.55;;
65710;SDS011;52690;54.496;9.030;2023-01-25T04:04:20;32.67;;;19.80;;
65710;SDS011;52690;54.496;9.030;2023-01-25T04:05:21;32.60;;;20.58;;
65710;SDS011;52690;54.496;9.030;2023-01-25T04:06:21;29.30;;;19.42;;
65710;SDS011;52690;54.496;9.030;2023-01-25T04:07:21;32.33;;;21.20;;
65710;SDS011;52690;54.496;9.030;2023-01-25T04:08:21;32.95;;;20.42;;
65710;SDS011;52690;54.496;9.030;2023-01-25T04:09:21;32.03;;;20.52;;
65710;SDS011;52690;54.496;9.030;2023-01-25T04:10:21;37.63;;;22.63;;
65710;SDS011;52690;54.496;9.030;2023-01-25T04:11:22;36.85;;;22.35;;
65710;SDS011;52690;54.496;9.030;2023-01-25T04:12:22;32.90;;;21.35;;
65710;SDS011;52690;54.496;9.030;2023-01-25T04:13:22;33.87;;;21.40;;
65710;SDS011;52690;54.496;9.030;2023-01-25T04:14:23;32.80;;;21.00;;
65710;SDS011;52690;54.496;9.030;2023-01-25T04:15:23;31.60;;;21.00;;
65710;SDS011;52690;54.496;9.030;2023-01-25T04:16:23;37.97;;;21.75;;
65710;SDS011;52690;54.496;9.030;2023-01-25T04:17:23;36.00;;;21.52;;
65710;SDS011;52690;54.496;9.030;2023-01-25T04:18:23;38.08;;;22.67;;
65710;SDS011;52690;54.496;9.030;2023-01-25T04:19:23;32.08;;;21.25;;
65710;SDS011;52690;54.496;9.030;2023-01-25T04:20:24;37.85;;;22.08;;
65710;SDS011;52690;54.496;9.030;2023-01-25T04:21:24;39.45;;;21.95;;
65710;SDS011;52690;54.496;9.030;2023-01-25T04:22:24;34.53;;;21.00;;
65710;SDS011;52690;54.496;9.030;2023-01-25T04:23:24;31.73;;;20.92;;
65710;SDS011;52690;54.496;9.030;2023-01-25T04:24:25;34.45;;;20.83;;
65710;SDS011;52690;54.496;9.030;2023-01-25T04:25:25;36.08;;;21.92;;
65710;SDS011;52690;54.496;9.030;2023-01-25T04:26:25;35.38;;;21.90;;
65710;SDS011;52690;54.496;9.030;2023-01-25T04:27:25;37.05;;;21.65;;
65710;SDS011;52690;54.496;9.030;2023-01-25T04:28:25;33.42;;;21.48;;
65710;SDS011;52690;54.496;9.030;2023-01-25T04:29:26;38.22;;;23.35;;
65710;SDS011;52690;54.496;9.030;2023-01-25T04:30:26;37.33;;;23.08;;
65710;SDS011;52690;54.496;9.030;2023-01-25T04:31:26;35.20;;;22.30;;
65710;SDS011;52690;54.496;9.030;2023-01-25T04:32:27;39.90;;;23.58;;
65710;SDS011;52690;54.496;9.030;2023-01-25T04:33:27;37.67;;;23.90;;
65710;SDS011;52690;54.496;9.030;2023-01-25T04:34:27;40.05;;;23.17;;
65710;SDS011;52690;54.496;9.030;2023-01-25T04:35:27;34.97;;;22.20;;
65710;SDS011;52690;54.496;9.030;2023-01-25T04:36:27;43.65;;;23.95;;
65710;SDS011;52690;54.496;9.030;2023-01-25T04:37:27;37.60;;;22.88;;
65710;SDS011;52690;54.496;9.030;2023-01-25T04:38:27;36.97;;;22.80;;
65710;SDS011;52690;54.496;9.030;2023-01-25T04:39:28;36.08;;;22.52;;
65710;SDS011;52690;54.496;9.030;2023-01-25T04:40:28;33.78;;;20.55;;
65710;SDS011;52690;54.496;9.030;2023-01-25T04:41:28;33.67;;;21.23;;
65710;SDS011;52690;54.496;9.030;2023-01-25T04:42:28;37.25;;;22.95;;
65710;SDS011;52690;54.496;9.030;2023-01-25T04:43:28;36.88;;;22.55;;
65710;SDS011;52690;54.496;9.030;2023-01-25T04:44:29;37.55;;;22.17;;
65710;SDS011;52690;54.496;9.030;2023-01-25T04:45:29;33.83;;;21.52;;
65710;SDS011;52690;54.496;9.030;2023-01-25T04:46:29;35.72;;;19.92;;
65710;SDS011;52690;54.496;9.030;2023-01-25T04:47:29;34.55;;;20.67;;
65710;SDS011;52690;54.496;9.030;2023-01-25T04:48:29;32.22;;;20.30;;
65710;SDS011;52690;54.496;9.030;2023-01-25T04:49:29;30.23;;;20.25;;
65710;SDS011;52690;54.496;9.030;2023-01-25T04:50:30;36.08;;;20.27;;
65710;SDS011;52690;54.496;9.030;2023-01-25T04:51:30;32.15;;;19.25;;
65710;SDS011;52690;54.496;9.030;2023-01-25T04:52:30;31.10;;;19.30;;
65710;SDS011;52690;54.496;9.030;2023-01-25T04:53:30;31.15;;;19.10;;
65710;SDS011;52690;54.496;9.030;2023-01-25T04:54:30;29.98;;;18.77;;
65710;SDS011;52690;54.496;9.030;2023-01-25T04:55:31;31.00;;;18.88;;
65710;SDS011;52690;54.496;9.030;2023-01-25T04:56:32;29.92;;;18.73;;
65710;SDS011;52690;54.496;9.030;2023-01-25T04:57:32;31.50;;;19.88;;
65710;SDS011;52690;54.496;9.030;2023-01-25T04:58:32;27.20;;;17.83;;
65710;SDS011;52690;54.496;9.030;2023-01-25T04:59:32;30.58;;;19.02;;
65710;SDS011;52690;54.496;9.030;2023-01-25T05:00:33;27.75;;;17.50;;
65710;SDS011;52690;54.496;9.030;2023-01-25T05:01:33;27.35;;;17.45;;
65710;SDS011;52690;54.496;9.030;2023-01-25T05:02:33;28.90;;;19.00;;
65710;SDS011;52690;54.496;9.030;2023-01-25T05:03:33;29.65;;;18.10;;
65710;SDS011;52690;54.496;9.030;2023-01-25T05:04:33;27.83;;;18.63;;
65710;SDS011;52690;54.496;9.030;2023-01-25T05:05:34;27.25;;;18.25;;
65710;SDS011;52690;54.496;9.030;2023-01-25T05:06:34;26.92;;;18.30;;
65710;SDS011;52690;54.496;9.030;2023-01-25T05:07:34;29.83;;;18.63;;
65710;SDS011;52690;54.496;9.030;2023-01-25T05:08:34;29.38;;;20.02;;
65710;SDS011;52690;54.496;9.030;2023-01-25T05:09:34;28.20;;;18.52;;
65710;SDS011;52690;54.496;9.030;2023-01-25T05:10:34;31.27;;;20.05;;
65710;SDS011;52690;54.496;9.030;2023-01-25T05:11:34;32.85;;;20.70;;
65710;SDS011;52690;54.496;9.030;2023-01-25T05:12:35;33.80;;;20.05;;
65710;SDS011;52690;54.496;9.030;2023-01-25T05:13:35;34.17;;;20.15;;
65710;SDS011;52690;54.496;9.030;2023-01-25T05:14:35;30.05;;;19.60;;
65710;SDS011;52690;54.496;9.030;2023-01-25T05:15:35;33.92;;;20.50;;
65710;SDS011;52690;54.496;9.030;2023-01-25T05:16:35;33.78;;;19.85;;
65710;SDS011;52690;54.496;9.030;2023-01-25T05:17:35;28.65;;;18.30;;
65710;SDS011;52690;54.496;9.030;2023-01-25T05:18:36;28.50;;;18.23;;
65710;SDS011;52690;54.496;9.030;2023-01-25T05:19:36;28.05;;;17.95;;
65710;SDS011;52690;54.496;9.030;2023-01-25T05:20:36;29.95;;;18.75;;
65710;SDS011;52690;54.496;9.030;2023-01-25T05:21:36;31.70;;;18.77;;
65710;SDS011;52690;54.496;9.030;2023-01-25T05:22:55;30.42;;;18.63;;
65710;SDS011;52690;54.496;9.030;2023-01-25T05:23:55;29.58;;;19.02;;
65710;SDS011;52690;54.496;9.030;2023-01-25T05:24:55;29.63;;;18.52;;
65710;SDS011;52690;54.496;9.030;2023-01-25T05:25:55;26.67;;;18.73;;
65710;SDS011;52690;54.496;9.030;2023-01-25T05:27:15;32.78;;;19.73;;
65710;SDS011;52690;54.496;9.030;2023-01-25T05:28:16;28.48;;;19.05;;
65710;SDS011;52690;54.496;9.030;2023-01-25T05:29:16;29.98;;;19.85;;
65710;SDS011;52690;54.496;9.030;2023-01-25T05:30:16;31.08;;;19.85;;
65710;SDS011;52690;54.496;9.030;2023-01-25T05:31:16;31.35;;;19.45;;
65710;SDS011;52690;54.496;9.030;2023-01-25T05:32:17;33.63;;;20.80;;
65710;SDS011;52690;54.496;9.030;2023-01-25T05:33:18;31.45;;;19.63;;
65710;SDS011;52690;54.496;9.030;2023-01-25T05:34:18;35.35;;;21.23;;
65710;SDS011;52690;54.496;9.030;2023-01-25T05:35:18;32.88;;;21.23;;
65710;SDS011;52690;54.496;9.030;2023-01-25T05:36:18;33.78;;;21.35;;
65710;SDS011;52690;54.496;9.030;2023-01-25T05:37:19;32.45;;;20.65;;
65710;SDS011;52690;54.496;9.030;2023-01-25T05:38:19;35.25;;;19.80;;
65710;SDS011;52690;54.496;9.030;2023-01-25T05:39:20;31.73;;;20.85;;
65710;SDS011;52690;54.496;9.030;2023-01-25T05:40:20;32.13;;;20.60;;
65710;SDS011;52690;54.496;9.030;2023-01-25T05:41:20;33.17;;;21.13;;
65710;SDS011;52690;54.496;9.030;2023-01-25T05:42:20;34.53;;;19.67;;
65710;SDS011;52690;54.496;9.030;2023-01-25T05:43:20;30.38;;;19.63;;
65710;SDS011;52690;54.496;9.030;2023-01-25T05:44:22;30.40;;;19.45;;
65710;SDS011;52690;54.496;9.030;2023-01-25T05:45:23;29.63;;;19.45;;
65710;SDS011;52690;54.496;9.030;2023-01-25T05:46:23;32.08;;;20.45;;
65710;SDS011;52690;54.496;9.030;2023-01-25T05:47:23;30.45;;;19.20;;
65710;SDS011;52690;54.496;9.030;2023-01-25T05:48:23;35.40;;;20.85;;
65710;SDS011;52690;54.496;9.030;2023-01-25T05:49:24;32.70;;;19.70;;
65710;SDS011;52690;54.496;9.030;2023-01-25T05:50:24;31.30;;;19.70;;
65710;SDS011;52690;54.496;9.030;2023-01-25T05:51:24;34.80;;;20.63;;
65710;SDS011;52690;54.496;9.030;2023-01-25T05:52:25;33.10;;;20.08;;
65710;SDS011;52690;54.496;9.030;2023-01-25T05:53:25;33.53;;;21.25;;
65710;SDS011;52690;54.496;9.030;2023-01-25T05:54:25;33.40;;;21.02;;
65710;SDS011;52690;54.496;9.030;2023-01-25T05:55:26;36.63;;;20.65;;
65710;SDS011;52690;54.496;9.030;2023-01-25T05:56:26;38.05;;;20.95;;
65710;SDS011;52690;54.496;9.030;2023-01-25T05:57:26;35.05;;;20.67;;
65710;SDS011;52690;54.496;9.030;2023-01-25T05:58:27;33.03;;;20.52;;
65710;SDS011;52690;54.496;9.030;2023-01-25T05:59:27;33.75;;;20.15;;
65710;SDS011;52690;54.496;9.030;2023-01-25T06:00:28;33.58;;;19.52;;
65710;SDS011;52690;54.496;9.030;2023-01-25T06:01:28;36.42;;;20.85;;
65710;SDS011;52690;54.496;9.030;2023-01-25T06:02:28;31.63;;;19.58;;